Time;durP1;ratioP1;P1;durP2;ratioP2;P2;SDS_P1;SDS_P2;PMS_P1;PMS_P2;Temp;Humidity;BMP_temperature;BMP_pressure;BME280_temperature;BME280_humidity;BME280_pressure;Samples;Min_cycle;Max_cycle;Signal;HPM_P1;HPM_P2
2021/03/13 00:00:32;;;;;;;7.18;2.00;;;23.50;37.50;;;;;;5071269;28;20035;-59
2021/03/13 00:02:58;;;;;;;3.20;2.05;;;23.50;37.60;;;;;;5036528;28;20438;-59
2021/03/13 00:05:32;;;;;;;3.67;2.22;;;23.50;37.60;;;;;;5054185;28;20355;-60
2021/03/13 00:07:58;;;;;;;2.75;1.75;;;23.40;37.50;;;;;;5053943;28;20025;-59
2021/03/13 00:10:24;;;;;;;5.60;2.40;;;23.50;37.60;;;;;;5072881;28;20414;-60
2021/03/13 00:12:50;;;;;;;4.68;2.20;;;23.50;37.60;;;;;;5050521;28;20025;-60
2021/03/13 00:15:17;;;;;;;7.25;2.97;;;23.40;37.60;;;;;;5082644;28;20489;-59
2021/03/13 00:17:45;;;;;;;5.68;2.78;;;23.40;37.60;;;;;;5069738;28;20033;-59
2021/03/13 00:20:14;;;;;;;5.20;2.33;;;23.40;37.60;;;;;;5054227;28;20033;-60
2021/03/13 00:22:40;;;;;;;2.10;1.63;;;23.40;37.50;;;;;;5056314;28;20095;-60
2021/03/13 00:25:07;;;;;;;2.67;1.85;;;23.40;37.60;;;;;;5064706;28;20029;-59
2021/03/13 00:27:46;;;;;;;4.63;1.80;;;23.30;37.60;;;;;;5036882;28;20766;-59
2021/03/13 00:30:12;;;;;;;2.22;1.75;;;23.30;37.60;;;;;;5071837;28;20128;-59
2021/03/13 00:32:38;;;;;;;4.10;2.03;;;23.30;37.70;;;;;;5053474;28;20404;-59
2021/03/13 00:35:05;;;;;;;4.22;2.30;;;23.30;37.70;;;;;;5053357;28;20068;-60
2021/03/13 00:37:31;;;;;;;2.33;1.75;;;23.30;37.70;;;;;;5073060;28;20055;-60
2021/03/13 00:39:57;;;;;;;4.00;2.00;;;23.30;37.70;;;;;;5089032;28;20024;-59
2021/03/13 00:42:23;;;;;;;3.28;2.17;;;23.30;37.80;;;;;;5054699;28;20025;-60
2021/03/13 00:44:49;;;;;;;3.75;2.00;;;23.30;37.80;;;;;;5041507;28;20127;-59
2021/03/13 00:47:15;;;;;;;5.68;2.63;;;23.30;37.80;;;;;;5086254;28;20048;-59
2021/03/13 00:49:41;;;;;;;3.42;2.13;;;23.30;37.80;;;;;;5087443;28;20024;-60
2021/03/13 00:52:07;;;;;;;3.65;2.05;;;23.30;37.80;;;;;;5074298;28;20019;-60
2021/03/13 00:54:33;;;;;;;7.28;2.60;;;23.20;37.80;;;;;;5072393;28;20207;-59
2021/03/13 00:56:59;;;;;;;4.68;2.65;;;23.20;37.80;;;;;;5089559;28;20284;-59
2021/03/13 00:59:25;;;;;;;4.55;2.13;;;23.20;37.80;;;;;;5088750;28;20056;-60
2021/03/13 01:01:51;;;;;;;2.67;1.80;;;23.20;38.50;;;;;;5086116;28;20030;-60
2021/03/13 01:04:17;;;;;;;4.32;2.38;;;23.20;37.80;;;;;;5109236;28;20032;-60
2021/03/13 01:06:43;;;;;;;3.38;1.83;;;23.20;37.80;;;;;;5090166;28;20089;-60
2021/03/13 01:09:09;;;;;;;4.93;2.05;;;23.20;37.90;;;;;;5093293;28;20047;-60
2021/03/13 01:11:38;;;;;;;2.92;2.17;;;23.10;37.80;;;;;;5060812;28;20027;-60
2021/03/13 01:14:07;;;;;;;4.85;2.92;;;23.20;37.80;;;;;;5065505;28;20037;-60
2021/03/13 01:16:40;;;;;;;4.57;2.55;;;23.10;37.80;;;;;;5076240;28;20089;-60
2021/03/13 01:19:07;;;;;;;3.50;2.35;;;23.10;37.80;;;;;;5064342;28;20042;-61
2021/03/13 01:21:33;;;;;;;5.40;2.10;;;23.20;37.80;;;;;;5073550;28;20031;-59
2021/03/13 01:24:01;;;;;;;5.40;2.42;;;23.10;37.60;;;;;;5098698;28;20051;-60
2021/03/13 01:26:32;;;;;;;2.67;2.08;;;23.10;37.70;;;;;;5055564;28;20500;-59
2021/03/13 01:29:02;;;;;;;3.35;1.95;;;23.10;37.70;;;;;;5086348;28;20123;-59
2021/03/13 01:31:39;;;;;;;3.22;2.03;;;23.10;37.70;;;;;;5071519;28;20028;-59
2021/03/13 01:34:05;;;;;;;2.78;2.03;;;23.00;37.70;;;;;;5099083;28;20028;-59
2021/03/13 01:36:35;;;;;;;4.13;2.30;;;23.00;37.70;;;;;;5108763;28;20044;-60
2021/03/13 01:39:03;;;;;;;4.03;2.20;;;23.10;37.70;;;;;;5079008;28;20042;-59
2021/03/13 01:41:30;;;;;;;3.47;2.47;;;23.10;37.80;;;;;;5073696;28;20024;-60
2021/03/13 01:43:56;;;;;;;3.40;1.98;;;23.00;37.70;;;;;;5108555;28;20044;-59
2021/03/13 01:46:25;;;;;;;3.58;1.95;;;23.00;37.70;;;;;;5101221;28;20136;-60
2021/03/13 01:48:52;;;;;;;4.40;2.00;;;23.00;37.70;;;;;;5052811;28;20409;-60
2021/03/13 01:51:22;;;;;;;5.13;1.88;;;23.00;37.70;;;;;;5093182;28;20013;-60
2021/03/13 01:53:50;;;;;;;3.13;1.88;;;23.00;37.70;;;;;;5065763;28;20026;-59
2021/03/13 01:56:20;;;;;;;5.60;2.03;;;23.00;37.70;;;;;;5059200;28;20025;-59
2021/03/13 01:58:49;;;;;;;6.50;2.30;;;23.00;37.70;;;;;;5067797;28;20029;-59
2021/03/13 02:01:17;;;;;;;4.20;2.28;;;23.00;37.70;;;;;;5051427;28;20064;-60
2021/03/13 02:03:43;;;;;;;2.72;1.85;;;23.00;37.60;;;;;;5084542;28;20033;-60
2021/03/13 02:06:13;;;;;;;3.60;2.15;;;22.90;37.50;;;;;;5061758;28;20505;-60
2021/03/13 02:08:51;;;;;;;3.70;1.88;;;23.00;37.50;;;;;;5074912;28;20107;-59
2021/03/13 02:11:32;;;;;;;3.50;1.60;;;22.90;37.40;;;;;;5074538;28;20024;-59
2021/03/13 02:14:20;;;;;;;3.67;2.15;;;22.90;37.40;;;;;;5103568;28;20448;-59
2021/03/13 02:17:16;;;;;;;2.33;1.80;;;22.90;37.50;;;;;;5074958;28;20146;-59
2021/03/13 02:20:04;;;;;;;4.45;1.73;;;22.90;37.60;;;;;;5059362;28;20033;-60
2021/03/13 02:22:39;;;;;;;3.42;2.20;;;22.90;38.20;;;;;;5071593;28;20052;-60
2021/03/13 02:26:01;;;;;;;2.00;1.60;;;22.90;37.60;;;;;;5056033;28;20349;-59
2021/03/13 02:29:07;;;;;;;1.98;1.50;;;22.90;37.70;;;;;;5080691;28;20033;-59
2021/03/13 02:31:36;;;;;;;3.88;1.65;;;22.80;37.60;;;;;;5073756;28;20032;-61
2021/03/13 02:34:06;;;;;;;3.10;1.73;;;22.90;37.70;;;;;;5073828;28;20211;-59
2021/03/13 02:36:39;;;;;;;3.00;1.65;;;22.80;37.70;;;;;;5064332;28;20033;-59
2021/03/13 02:39:10;;;;;;;2.30;1.63;;;22.80;37.80;;;;;;5071204;28;20351;-60
2021/03/13 02:41:49;;;;;;;2.88;1.50;;;22.80;37.80;;;;;;5074227;28;20057;-59
2021/03/13 02:44:20;;;;;;;3.08;1.45;;;22.80;37.80;;;;;;5054487;28;20029;-59
2021/03/13 02:46:55;;;;;;;2.85;1.58;;;22.80;37.90;;;;;;5061808;28;20433;-59
2021/03/13 02:49:28;;;;;;;4.03;1.83;;;22.80;37.90;;;;;;5074141;28;20115;-59
2021/03/13 02:52:07;;;;;;;6.22;1.77;;;22.80;37.90;;;;;;5072609;28;20028;-60
2021/03/13 02:54:37;;;;;;;4.47;1.65;;;22.80;37.90;;;;;;5068441;28;20028;-59
2021/03/13 02:57:06;;;;;;;3.55;2.08;;;22.80;37.90;;;;;;5102208;28;20403;-60
2021/03/13 02:59:37;;;;;;;2.13;1.67;;;22.80;38.60;;;;;;5054487;28;20059;-59
2021/03/13 03:02:05;;;;;;;3.40;2.03;;;22.80;38.10;;;;;;5087833;28;20033;-59
2021/03/13 03:04:33;;;;;;;4.03;1.75;;;22.70;38.10;;;;;;5071058;28;20021;-60
2021/03/13 03:07:00;;;;;;;3.25;1.73;;;22.70;38.10;;;;;;5087319;28;20032;-60
2021/03/13 03:09:27;;;;;;;3.47;2.13;;;22.70;38.20;;;;;;5089647;28;20150;-59
2021/03/13 03:11:55;;;;;;;3.00;1.70;;;22.70;38.20;;;;;;5074007;28;20037;-59
2021/03/13 03:14:23;;;;;;;2.45;1.65;;;22.70;38.20;;;;;;5072938;28;20059;-59
2021/03/13 03:16:54;;;;;;;3.47;1.77;;;22.70;38.30;;;;;;5069604;28;20064;-59
2021/03/13 03:19:27;;;;;;;3.13;1.90;;;22.70;38.20;;;;;;5073245;28;20063;-60
2021/03/13 03:22:04;;;;;;;2.90;2.03;;;22.70;38.30;;;;;;5073560;28;20418;-60
2021/03/13 03:24:32;;;;;;;1.95;1.67;;;22.70;38.90;;;;;;5069834;28;20025;-60
2021/03/13 03:27:00;;;;;;;3.72;2.05;;;22.70;38.40;;;;;;5077350;28;20056;-60
2021/03/13 03:29:27;;;;;;;1.95;1.60;;;22.70;38.40;;;;;;5073109;28;20037;-60
2021/03/13 03:31:54;;;;;;;3.97;2.00;;;22.70;38.40;;;;;;5083393;28;20101;-60
2021/03/13 03:34:20;;;;;;;5.40;1.63;;;22.70;38.40;;;;;;5074850;28;20024;-60
2021/03/13 03:36:50;;;;;;;4.28;2.15;;;22.70;38.40;;;;;;5059280;28;20028;-59
2021/03/13 03:39:17;;;;;;;3.45;2.33;;;22.60;38.40;;;;;;5053476;28;20036;-59
2021/03/13 03:41:46;;;;;;;3.17;2.05;;;22.60;38.40;;;;;;5067631;28;20051;-60
2021/03/13 03:44:19;;;;;;;3.97;2.17;;;22.60;38.40;;;;;;5090740;28;20547;-59
2021/03/13 03:46:58;;;;;;;3.75;1.88;;;22.60;38.50;;;;;;5074093;28;20048;-59
2021/03/13 03:49:27;;;;;;;3.75;2.13;;;22.60;38.50;;;;;;5097936;28;20055;-59
2021/03/13 03:52:27;;;;;;;5.05;2.00;;;22.60;38.50;;;;;;5050591;28;20032;-59
2021/03/13 03:54:54;;;;;;;3.75;1.85;;;22.60;38.50;;;;;;5067277;28;20093;-59
2021/03/13 03:57:21;;;;;;;3.42;1.90;;;22.60;38.50;;;;;;5094752;28;20608;-58
2021/03/13 03:59:48;;;;;;;3.95;2.15;;;22.60;38.60;;;;;;5081617;28;20070;-58
2021/03/13 04:02:16;;;;;;;3.13;1.98;;;22.60;38.60;;;;;;5092902;28;20055;-60
2021/03/13 04:04:43;;;;;;;4.80;1.85;;;22.50;38.60;;;;;;5094591;28;20107;-59
2021/03/13 04:07:10;;;;;;;2.72;2.00;;;22.50;38.70;;;;;;5091915;28;20115;-59
2021/03/13 04:09:39;;;;;;;3.80;1.83;;;22.50;38.70;;;;;;5094353;28;20373;-59
2021/03/13 04:12:08;;;;;;;3.60;2.03;;;22.50;38.80;;;;;;5078876;28;20021;-59
2021/03/13 04:14:35;;;;;;;3.22;1.75;;;22.50;38.80;;;;;;5089721;28;20510;-60
2021/03/13 04:17:02;;;;;;;3.55;1.60;;;22.50;38.90;;;;;;5072949;28;20055;-60
2021/03/13 04:19:29;;;;;;;3.28;1.80;;;22.50;38.90;;;;;;5058663;28;20043;-60
2021/03/13 04:21:55;;;;;;;2.63;1.70;;;22.50;38.90;;;;;;5075053;28;20039;-60
2021/03/13 04:24:23;;;;;;;3.63;1.70;;;22.50;38.90;;;;;;5074260;28;20381;-60
2021/03/13 04:26:49;;;;;;;3.67;2.10;;;22.50;38.90;;;;;;5080428;28;20028;-60
2021/03/13 04:29:15;;;;;;;4.25;1.77;;;22.50;38.90;;;;;;5083437;28;20028;-59
2021/03/13 04:31:41;;;;;;;4.15;1.73;;;22.50;38.90;;;;;;5093676;28;20077;-60
2021/03/13 04:34:10;;;;;;;2.60;2.00;;;22.50;38.90;;;;;;5065686;28;20130;-60
2021/03/13 04:36:37;;;;;;;4.10;1.88;;;22.50;38.90;;;;;;5073714;28;20037;-60
2021/03/13 04:39:05;;;;;;;4.88;1.88;;;22.50;38.90;;;;;;5092585;28;20027;-60
2021/03/13 04:41:32;;;;;;;2.03;1.52;;;22.50;39.00;;;;;;5093902;28;20439;-60
2021/03/13 04:44:00;;;;;;;2.10;1.77;;;22.50;39.00;;;;;;5092377;28;20492;-60
2021/03/13 04:46:26;;;;;;;4.35;1.90;;;22.40;39.00;;;;;;5072331;28;20045;-60
2021/03/13 04:48:53;;;;;;;2.78;2.03;;;22.50;39.10;;;;;;5068651;28;20039;-60
2021/03/13 04:51:19;;;;;;;2.80;1.95;;;22.50;39.10;;;;;;5072984;28;20032;-60
2021/03/13 04:53:46;;;;;;;3.92;1.92;;;22.40;39.00;;;;;;5064533;28;20024;-59
2021/03/13 04:56:13;;;;;;;3.30;1.98;;;22.40;39.00;;;;;;5073606;28;20117;-59
2021/03/13 04:58:40;;;;;;;5.63;2.35;;;22.40;39.00;;;;;;5068650;28;20112;-59
2021/03/13 05:01:06;;;;;;;2.92;2.08;;;22.40;39.10;;;;;;5083999;28;20440;-60
2021/03/13 05:03:32;;;;;;;5.75;2.53;;;22.40;39.10;;;;;;5068832;28;20036;-59
2021/03/13 05:05:58;;;;;;;2.38;1.52;;;22.40;39.10;;;;;;5063970;28;20028;-59
2021/03/13 05:08:24;;;;;;;2.13;1.63;;;22.30;39.10;;;;;;5070759;28;20387;-59
2021/03/13 05:10:50;;;;;;;3.35;1.80;;;22.40;39.10;;;;;;5052835;28;20402;-59
2021/03/13 05:13:16;;;;;;;5.32;1.63;;;22.40;39.20;;;;;;5076893;28;20051;-60
2021/03/13 05:15:42;;;;;;;4.45;2.42;;;22.40;39.20;;;;;;5063183;28;20047;-60
2021/03/13 05:18:07;;;;;;;3.67;1.80;;;22.40;39.20;;;;;;5052917;28;20025;-60
2021/03/13 05:20:34;;;;;;;2.38;1.75;;;22.40;39.30;;;;;;5063562;28;20028;-59
2021/03/13 05:22:59;;;;;;;2.08;1.75;;;22.40;39.30;;;;;;5072416;28;20032;-60
2021/03/13 05:25:25;;;;;;;2.45;1.80;;;22.40;39.30;;;;;;5071742;28;20108;-59
2021/03/13 05:27:51;;;;;;;3.90;2.08;;;22.30;39.30;;;;;;5070916;28;20437;-62
2021/03/13 05:30:18;;;;;;;3.50;2.00;;;22.30;39.30;;;;;;5071679;28;20135;-59
2021/03/13 05:32:44;;;;;;;2.65;1.90;;;22.30;39.30;;;;;;5072174;28;20116;-59
2021/03/13 05:35:11;;;;;;;3.13;1.90;;;22.30;39.30;;;;;;5071610;28;20131;-59
2021/03/13 05:37:39;;;;;;;2.67;2.00;;;22.30;39.40;;;;;;5071879;28;20028;-59
2021/03/13 05:40:07;;;;;;;2.90;1.90;;;22.30;39.40;;;;;;5069885;28;20389;-59
2021/03/13 05:42:36;;;;;;;2.95;1.73;;;22.30;39.50;;;;;;5072295;28;20787;-59
2021/03/13 05:45:04;;;;;;;4.13;1.90;;;22.30;39.50;;;;;;5072001;28;20031;-59
2021/03/13 05:47:31;;;;;;;4.97;1.88;;;22.30;39.50;;;;;;5072650;28;20036;-59
2021/03/13 05:50:04;;;;;;;5.18;2.20;;;22.30;39.50;;;;;;5079478;28;20116;-59
2021/03/13 05:52:35;;;;;;;3.20;2.00;;;22.20;39.50;;;;;;5052101;28;20025;-59
2021/03/13 05:55:03;;;;;;;5.13;2.40;;;22.20;39.50;;;;;;5060522;28;20063;-59
2021/03/13 05:57:30;;;;;;;3.60;2.33;;;22.30;39.60;;;;;;5071657;28;20099;-60
2021/03/13 05:59:57;;;;;;;5.40;2.60;;;22.30;39.60;;;;;;5071593;28;20028;-60
2021/03/13 06:02:23;;;;;;;3.55;2.55;;;22.20;39.60;;;;;;5071450;28;20036;-60
2021/03/13 06:04:53;;;;;;;6.50;2.65;;;22.20;39.60;;;;;;5052547;28;20082;-60
2021/03/13 06:07:21;;;;;;;5.88;2.58;;;22.20;39.60;;;;;;5071480;28;20033;-61
2021/03/13 06:09:55;;;;;;;2.70;2.22;;;22.20;39.70;;;;;;5071331;28;20021;-61
2021/03/13 06:12:22;;;;;;;5.55;2.80;;;22.20;39.70;;;;;;5071769;28;20470;-61
2021/03/13 06:14:52;;;;;;;4.80;2.70;;;22.20;39.70;;;;;;5071928;28;20530;-61
2021/03/13 06:17:19;;;;;;;3.47;2.67;;;22.20;39.80;;;;;;5070328;28;20397;-61
2021/03/13 06:19:55;;;;;;;5.70;3.33;;;22.20;39.80;;;;;;5072210;28;20052;-61
2021/03/13 06:22:43;;;;;;;3.78;2.78;;;22.10;39.80;;;;;;5072638;28;20074;-62
2021/03/13 06:25:17;;;;;;;3.30;2.88;;;22.10;39.80;;;;;;5054242;28;20028;-60
2021/03/13 06:28:10;;;;;;;4.38;3.08;;;22.10;39.90;;;;;;5072595;28;20064;-61
2021/03/13 06:30:39;;;;;;;6.88;3.50;;;22.10;39.90;;;;;;5068168;28;20037;-61
2021/03/13 06:33:19;;;;;;;7.22;4.80;;;22.10;39.90;;;;;;5074642;28;20032;-61
2021/03/13 06:35:45;;;;;;;6.30;4.60;;;22.10;39.90;;;;;;5072306;28;20020;-61
2021/03/13 06:38:20;;;;;;;9.45;5.55;;;22.10;39.80;;;;;;5072188;28;20009;-60
2021/03/13 06:40:47;;;;;;;8.38;5.32;;;22.00;39.90;;;;;;5072024;28;20041;-61
2021/03/13 06:43:26;;;;;;;8.80;6.85;;;22.00;39.90;;;;;;5071832;28;20017;-59
2021/03/13 06:46:08;;;;;;;9.40;7.18;;;22.00;40.00;;;;;;5071541;28;20488;-61
2021/03/13 06:48:45;;;;;;;11.93;10.10;;;22.00;40.10;;;;;;5054160;28;20112;-61
2021/03/13 06:51:20;;;;;;;12.63;11.30;;;22.00;40.10;;;;;;5072314;28;20017;-61
2021/03/13 06:54:02;;;;;;;16.33;12.93;;;21.90;40.10;;;;;;5075497;28;20042;-61
2021/03/13 06:56:30;;;;;;;21.98;19.63;;;21.90;40.20;;;;;;5075583;28;20028;-61
2021/03/13 06:58:57;;;;;;;35.80;31.35;;;21.80;40.20;;;;;;5075089;28;20063;-61
2021/03/13 07:01:32;;;;;;;46.78;40.95;;;21.90;40.20;;;;;;5075601;28;20032;-62
2021/03/13 07:03:59;;;;;;;70.28;62.17;;;21.80;40.10;;;;;;5075111;28;20055;-61
2021/03/13 07:06:25;;;;;;;55.38;46.38;;;21.80;40.10;;;;;;5074125;28;20379;-61
2021/03/13 07:08:55;;;;;;;49.10;43.72;;;21.80;40.10;;;;;;5050197;28;20119;-61
2021/03/13 07:11:24;;;;;;;46.88;40.33;;;21.80;40.20;;;;;;5065470;28;20071;-61
2021/03/13 07:13:54;;;;;;;32.92;28.50;;;21.80;40.30;;;;;;5085331;28;20107;-61
2021/03/13 07:16:21;;;;;;;29.43;23.73;;;21.70;40.20;;;;;;5087682;28;20039;-58
2021/03/13 07:18:47;;;;;;;17.38;14.52;;;21.70;40.20;;;;;;5075468;28;20186;-60
2021/03/13 07:21:14;;;;;;;160.60;143.55;;;21.80;40.00;;;;;;5036944;28;20033;-61
2021/03/13 07:23:42;;;;;;;77.28;69.05;;;21.70;39.80;;;;;;5055078;28;20036;-59
2021/03/13 07:26:10;;;;;;;68.90;61.58;;;21.60;39.80;;;;;;5082374;28;20120;-59
2021/03/13 07:28:42;;;;;;;70.65;63.03;;;21.60;39.90;;;;;;5081445;28;20158;-57
2021/03/13 07:31:12;;;;;;;61.70;55.25;;;21.60;40.10;;;;;;5083373;28;20437;-57
2021/03/13 07:33:39;;;;;;;62.67;56.10;;;21.60;40.10;;;;;;5083288;28;20032;-58
2021/03/13 07:36:10;;;;;;;54.78;48.80;;;21.60;40.20;;;;;;5078436;28;20033;-58
2021/03/13 07:38:40;;;;;;;52.45;46.90;;;21.60;40.30;;;;;;5074791;28;20028;-58
2021/03/13 07:41:09;;;;;;;51.65;46.15;;;21.60;40.40;;;;;;5053587;28;20067;-58
2021/03/13 07:43:38;;;;;;;48.05;42.30;;;21.70;40.50;;;;;;5090170;28;20036;-58
2021/03/13 07:46:08;;;;;;;40.50;36.10;;;21.70;40.50;;;;;;5073576;28;20073;-59
2021/03/13 07:48:38;;;;;;;38.25;34.33;;;21.70;40.50;;;;;;5055279;28;20025;-60
2021/03/13 07:51:06;;;;;;;39.33;35.22;;;21.70;40.60;;;;;;5075460;28;20012;-61
2021/03/13 07:53:43;;;;;;;33.63;30.15;;;21.70;40.60;;;;;;5080325;28;20031;-61
2021/03/13 07:56:14;;;;;;;33.00;25.42;;;21.80;40.70;;;;;;5079385;28;20555;-59
2021/03/13 07:58:41;;;;;;;24.48;20.17;;;21.80;40.60;;;;;;5073018;28;20031;-59
2021/03/13 08:01:08;;;;;;;28.17;16.17;;;21.80;40.60;;;;;;5073548;28;20037;-59
2021/03/13 08:03:34;;;;;;;17.40;13.23;;;21.80;40.60;;;;;;5054017;28;20056;-59
2021/03/13 08:06:01;;;;;;;23.42;14.25;;;21.70;40.70;;;;;;5053440;28;20479;-59
2021/03/13 08:08:47;;;;;;;17.05;12.15;;;21.70;40.90;;;;;;5053744;28;20022;-58
2021/03/13 08:11:15;;;;;;;17.05;12.13;;;21.70;41.20;;;;;;5072839;28;20044;-59
2021/03/13 08:13:40;;;;;;;27.65;23.85;;;21.70;41.20;;;;;;5073081;28;20024;-59
2021/03/13 08:16:07;;;;;;;43.65;36.25;;;21.80;41.30;;;;;;5072835;28;20558;-61
2021/03/13 08:18:47;;;;;;;51.22;44.70;;;21.70;41.30;;;;;;5054804;28;20447;-58
2021/03/13 08:21:19;;;;;;;45.85;37.70;;;21.70;41.60;;;;;;5073213;28;20036;-58
2021/03/13 08:23:50;;;;;;;39.38;34.67;;;21.80;41.70;;;;;;5054916;28;20032;-58
2021/03/13 08:26:19;;;;;;;;;;;21.80;41.90;;;;;;5073306;28;20157;-57
2021/03/13 08:28:46;;;;;;;34.47;25.15;;;21.90;41.60;;;;;;5072624;28;20381;-56
2021/03/13 08:31:32;;;;;;;22.95;19.38;;;21.90;42.00;;;;;;5072904;28;20025;-56
2021/03/13 08:34:01;;;;;;;15.75;11.00;;;22.00;42.90;;;;;;5072571;28;20028;-58
2021/03/13 08:36:51;;;;;;;14.48;8.63;;;22.00;44.60;;;;;;5055151;28;20032;-58
2021/03/13 08:39:35;;;;;;;9.07;6.30;;;22.00;45.50;;;;;;5052687;28;20025;-59
2021/03/13 08:42:02;;;;;;;12.80;7.25;;;22.00;46.70;;;;;;5054292;28;20467;-59
2021/03/13 08:44:33;;;;;;;10.13;5.18;;;22.10;46.30;;;;;;5081087;28;20381;-58
2021/03/13 08:47:08;;;;;;;14.38;5.93;;;22.20;47.30;;;;;;5098425;28;20040;-60
2021/03/13 08:49:35;;;;;;;13.98;5.38;;;22.20;48.20;;;;;;5075901;28;20142;-58
2021/03/13 08:52:04;;;;;;;9.38;5.07;;;22.20;47.90;;;;;;5071824;28;20104;-58
2021/03/13 08:54:40;;;;;;;52.03;43.70;;;22.20;48.50;;;;;;5071599;28;20435;-58
2021/03/13 08:57:24;;;;;;;31.13;23.85;;;22.30;48.30;;;;;;5071839;28;20025;-58
2021/03/13 08:59:56;;;;;;;17.65;12.65;;;22.30;48.50;;;;;;5054517;28;20033;-57
2021/03/13 09:02:32;;;;;;;12.63;8.93;;;22.30;48.80;;;;;;5071633;28;20375;-57
2021/03/13 09:05:16;;;;;;;16.13;10.32;;;22.40;49.40;;;;;;5072079;28;20025;-57
2021/03/13 09:07:49;;;;;;;17.20;7.85;;;22.40;48.80;;;;;;5071963;28;20333;-56
2021/03/13 09:10:16;;;;;;;33.08;28.65;;;22.50;49.40;;;;;;5072312;28;20078;-58
2021/03/13 09:12:43;;;;;;;22.17;15.68;;;22.50;48.70;;;;;;5072115;28;20439;-57
2021/03/13 09:15:11;;;;;;;28.27;23.60;;;22.50;49.30;;;;;;5054367;28;20036;-58
2021/03/13 09:17:37;;;;;;;41.35;29.25;;;22.60;48.80;;;;;;5072608;28;20514;-57
2021/03/13 09:20:11;;;;;;;22.15;15.52;;;22.60;48.60;;;;;;5073092;28;20039;-56
2021/03/13 09:22:43;;;;;;;20.67;13.30;;;22.70;49.50;;;;;;5072367;28;20059;-57
2021/03/13 09:25:14;;;;;;;14.00;9.63;;;22.70;49.70;;;;;;5054484;28;20834;-61
2021/03/13 09:27:41;;;;;;;18.30;11.95;;;22.70;49.70;;;;;;5071473;28;20063;-61
2021/03/13 09:30:10;;;;;;;16.70;9.60;;;22.70;48.90;;;;;;5071587;28;20028;-62
2021/03/13 09:32:47;;;;;;;15.25;7.97;;;22.80;49.40;;;;;;5071212;28;20035;-61
2021/03/13 09:35:15;;;;;;;18.90;12.95;;;22.80;49.50;;;;;;5053483;28;20359;-62
2021/03/13 09:37:41;;;;;;;25.77;19.55;;;22.90;49.20;;;;;;5060856;28;20360;-62
2021/03/13 09:40:28;;;;;;;21.95;16.70;;;22.90;49.30;;;;;;5081921;28;20363;-63
2021/03/13 09:42:54;;;;;;;22.98;16.92;;;23.10;49.50;;;;;;5076295;28;20040;-60
2021/03/13 09:45:25;;;;;;;23.33;12.57;;;23.20;49.00;;;;;;5052992;28;20044;-63
2021/03/13 09:48:03;;;;;;;28.98;12.02;;;23.40;48.60;;;;;;5069734;28;20443;-57
2021/03/13 09:50:39;;;;;;;18.27;7.97;;;23.70;48.70;;;;;;5069782;28;20111;-56
2021/03/13 09:53:06;;;;;;;15.32;8.18;;;23.90;48.80;;;;;;5045088;28;20025;-56
2021/03/13 09:55:32;;;;;;;12.63;7.43;;;24.40;48.60;;;;;;5070571;28;20402;-55
2021/03/13 09:58:01;;;;;;;13.18;8.38;;;25.10;48.10;;;;;;5070469;28;20020;-55
2021/03/13 10:00:41;;;;;;;33.97;23.95;;;25.80;46.90;;;;;;5073243;28;20090;-56
2021/03/13 10:03:11;;;;;;;;;;;26.40;46.00;;;;;;5079283;28;20032;-56
2021/03/13 10:05:37;;;;;;;19.90;12.13;;;26.80;45.90;;;;;;5070074;28;19912;-55
2021/03/13 10:08:07;;;;;;;16.30;10.15;;;27.10;44.90;;;;;;5069747;28;20031;-55
2021/03/13 10:10:34;;;;;;;11.88;7.75;;;27.20;44.40;;;;;;5071611;28;20021;-55
2021/03/13 10:13:02;;;;;;;17.65;7.80;;;27.30;44.50;;;;;;5071355;28;20032;-54
2021/03/13 10:15:33;;;;;;;15.25;7.22;;;27.30;44.40;;;;;;5071327;28;20485;-54
2021/03/13 10:18:00;;;;;;;13.77;7.60;;;27.20;44.20;;;;;;5070874;28;20028;-54
2021/03/13 10:20:38;;;;;;;17.85;7.20;;;27.20;44.40;;;;;;5072023;28;20103;-55
2021/03/13 10:23:11;;;;;;;75.30;67.25;;;27.10;44.10;;;;;;5071222;28;20085;-55
2021/03/13 10:25:39;;;;;;;65.47;58.38;;;27.00;44.40;;;;;;5081942;28;20032;-59
2021/03/13 10:28:10;;;;;;;109.80;98.32;;;26.90;44.40;;;;;;5075152;28;20428;-55
2021/03/13 10:30:42;;;;;;;103.82;93.28;;;26.90;44.40;;;;;;5075632;28;20025;-54
2021/03/13 10:33:09;;;;;;;53.50;46.42;;;26.80;44.40;;;;;;5074745;28;20486;-53
2021/03/13 10:35:35;;;;;;;49.47;41.45;;;26.60;44.60;;;;;;5074854;28;20146;-52
2021/03/13 10:38:14;;;;;;;41.05;31.08;;;26.50;44.70;;;;;;5057447;28;20054;-52
2021/03/13 10:40:46;;;;;;;21.63;15.98;;;26.30;44.80;;;;;;5076164;28;20083;-53
2021/03/13 10:43:15;;;;;;;23.25;16.02;;;26.20;45.10;;;;;;5057207;28;20438;-53
2021/03/13 10:46:05;;;;;;;20.60;16.88;;;26.10;45.20;;;;;;5075856;28;20029;-53
2021/03/13 10:48:34;;;;;;;23.73;13.77;;;25.80;45.30;;;;;;5075616;28;20040;-53
2021/03/13 10:51:00;;;;;;;16.65;10.52;;;25.70;45.60;;;;;;5058077;28;20024;-53
2021/03/13 10:53:35;;;;;;;16.52;9.68;;;25.60;45.80;;;;;;5058258;28;20031;-53
2021/03/13 10:56:07;;;;;;;13.48;8.93;;;25.50;46.10;;;;;;5075306;28;20021;-53
2021/03/13 10:58:35;;;;;;;17.65;8.43;;;25.30;46.40;;;;;;5068618;28;20032;-52
2021/03/13 11:01:06;;;;;;;17.83;8.38;;;25.30;46.70;;;;;;5075100;28;20047;-53
2021/03/13 11:03:33;;;;;;;14.95;7.20;;;25.20;46.90;;;;;;5075613;28;20024;-53
2021/03/13 11:05:59;;;;;;;13.27;7.07;;;25.10;47.70;;;;;;5075147;28;20104;-53
2021/03/13 11:08:26;;;;;;;11.77;6.68;;;25.00;47.30;;;;;;5072687;28;20059;-53
2021/03/13 11:10:54;;;;;;;17.02;7.00;;;24.90;48.00;;;;;;5074817;28;20032;-53
2021/03/13 11:13:22;;;;;;;13.63;7.60;;;24.90;47.70;;;;;;5065336;28;20060;-53
2021/03/13 11:15:48;;;;;;;13.88;8.07;;;24.80;47.80;;;;;;5061382;28;20024;-53
2021/03/13 11:18:15;;;;;;;12.20;7.10;;;24.70;47.80;;;;;;5080405;28;20025;-53
2021/03/13 11:20:42;;;;;;;13.68;8.20;;;24.70;48.00;;;;;;5081172;28;20450;-53
2021/03/13 11:23:08;;;;;;;15.27;8.00;;;24.70;48.20;;;;;;5070339;28;20071;-53
2021/03/13 11:25:35;;;;;;;15.50;10.52;;;24.70;48.30;;;;;;5055184;28;20036;-53
2021/03/13 11:28:05;;;;;;;18.02;9.68;;;24.60;48.20;;;;;;5059588;28;20024;-51
2021/03/13 11:30:31;;;;;;;13.32;7.95;;;24.60;48.70;;;;;;5084863;28;20488;-51
2021/03/13 11:32:57;;;;;;;15.77;8.15;;;24.60;49.00;;;;;;5075315;28;20021;-51
2021/03/13 11:35:24;;;;;;;16.30;8.63;;;24.60;49.10;;;;;;5073536;28;20157;-52
2021/03/13 11:37:53;;;;;;;13.00;7.15;;;24.60;49.20;;;;;;5073941;28;20407;-52
2021/03/13 11:40:23;;;;;;;15.88;8.00;;;24.60;49.50;;;;;;5074392;28;20049;-53
2021/03/13 11:42:52;;;;;;;15.47;6.93;;;24.60;49.50;;;;;;5064403;28;20031;-53
2021/03/13 11:45:18;;;;;;;13.70;6.75;;;24.60;49.70;;;;;;5069244;28;20690;-54
2021/03/13 11:47:45;;;;;;;16.27;6.00;;;24.60;49.60;;;;;;5074598;28;20544;-53
2021/03/13 11:50:13;;;;;;;12.57;6.30;;;24.60;49.70;;;;;;5074639;28;20048;-53
2021/03/13 11:52:39;;;;;;;14.30;6.35;;;24.60;49.80;;;;;;5074639;28;20074;-53
2021/03/13 11:55:07;;;;;;;15.05;6.22;;;24.70;49.60;;;;;;5073466;28;20454;-53
2021/03/13 11:57:33;;;;;;;12.02;6.28;;;24.70;49.70;;;;;;5054566;28;20356;-52
2021/03/13 11:59:59;;;;;;;11.57;6.03;;;24.80;49.60;;;;;;5071111;28;20032;-54
2021/03/13 12:02:25;;;;;;;15.48;7.38;;;24.80;49.50;;;;;;5064616;28;20506;-51
2021/03/13 12:04:51;;;;;;;13.05;6.15;;;24.80;49.30;;;;;;5072136;28;20086;-53
2021/03/13 12:07:17;;;;;;;9.45;5.32;;;24.90;49.10;;;;;;5074276;28;20371;-54
2021/03/13 12:09:43;;;;;;;15.63;7.55;;;24.90;49.10;;;;;;5055469;28;20158;-58
2021/03/13 12:12:10;;;;;;;13.80;7.20;;;25.10;48.70;;;;;;5072839;28;20540;-57
2021/03/13 12:14:37;;;;;;;17.38;6.43;;;25.10;48.30;;;;;;5072451;28;20032;-57
2021/03/13 12:17:04;;;;;;;13.55;7.75;;;25.30;48.00;;;;;;5072277;28;20025;-57
2021/03/13 12:19:30;;;;;;;15.02;7.03;;;25.50;47.80;;;;;;5072434;28;20090;-58
2021/03/13 12:21:56;;;;;;;12.40;7.07;;;25.60;47.30;;;;;;5072707;28;20476;-58
2021/03/13 12:24:22;;;;;;;13.75;7.32;;;25.70;46.90;;;;;;5072271;28;20016;-57
2021/03/13 12:26:49;;;;;;;15.77;7.47;;;25.90;46.70;;;;;;5072411;28;20386;-57
2021/03/13 12:29:15;;;;;;;15.68;7.18;;;26.00;46.60;;;;;;5073228;28;20101;-54
2021/03/13 12:31:41;;;;;;;18.45;7.40;;;26.10;46.50;;;;;;5072707;28;20091;-52
2021/03/13 12:34:07;;;;;;;12.43;6.35;;;26.20;46.40;;;;;;5073821;28;20139;-52
2021/03/13 12:36:33;;;;;;;12.50;7.22;;;26.30;46.20;;;;;;5073425;28;20031;-52
2021/03/13 12:38:59;;;;;;;12.80;6.63;;;26.40;46.00;;;;;;5073713;28;20037;-56
2021/03/13 12:41:25;;;;;;;20.05;6.55;;;26.40;45.80;;;;;;5073129;28;20054;-55
2021/03/13 12:43:51;;;;;;;16.58;6.32;;;26.50;45.70;;;;;;5052092;28;20161;-56
2021/03/13 12:46:18;;;;;;;14.35;7.10;;;26.70;45.60;;;;;;5060076;28;20086;-57
2021/03/13 12:48:45;;;;;;;18.40;6.20;;;26.80;45.20;;;;;;5074739;28;20028;-58
2021/03/13 12:51:11;;;;;;;15.13;6.18;;;27.00;45.00;;;;;;5071558;28;20040;-56
2021/03/13 12:53:37;;;;;;;20.80;6.95;;;27.10;44.60;;;;;;5092268;28;20024;-57